sensor_id;sensor_type;location;lat;lon;timestamp;pressure;altitude;pressure_sealevel;temperature;humidity
54270;BME280;40181;51.560;13.000;2022-07-10T00:00:16;101259.63;;;14.61;57.91
54270;BME280;40181;51.560;13.000;2022-07-10T00:02:46;101243.66;;;14.53;58.11
54270;BME280;40181;51.560;13.000;2022-07-10T00:05:14;101241.97;;;14.60;58.20
54270;BME280;40181;51.560;13.000;2022-07-10T00:07:43;101248.03;;;14.46;58.48
54270;BME280;40181;51.560;13.000;2022-07-10T00:10:12;101251.53;;;14.45;58.65
54270;BME280;40181;51.560;13.000;2022-07-10T00:12:40;101240.09;;;14.46;58.83
54270;BME280;40181;51.560;13.000;2022-07-10T00:15:12;101240.97;;;14.42;59.29
54270;BME280;40181;51.560;13.000;2022-07-10T00:17:41;101244.50;;;14.47;59.15
54270;BME280;40181;51.560;13.000;2022-07-10T00:20:11;101248.03;;;14.46;59.19
54270;BME280;40181;51.560;13.000;2022-07-10T00:22:41;101248.94;;;14.47;59.19
54270;BME280;40181;51.560;13.000;2022-07-10T00:25:11;101244.44;;;14.38;59.01
54270;BME280;40181;51.560;13.000;2022-07-10T00:27:41;101232.25;;;14.54;58.47
54270;BME280;40181;51.560;13.000;2022-07-10T00:30:13;101252.47;;;14.49;58.64
54270;BME280;40181;51.560;13.000;2022-07-10T00:32:41;101241.66;;;14.22;58.91
54270;BME280;40181;51.560;13.000;2022-07-10T00:35:09;101250.53;;;14.29;58.95
54270;BME280;40181;51.560;13.000;2022-07-10T00:37:38;101245.31;;;14.40;58.71
54270;BME280;40181;51.560;13.000;2022-07-10T00:40:07;101245.44;;;14.52;59.13
54270;BME280;40181;51.560;13.000;2022-07-10T00:42:35;101248.81;;;14.36;59.40
54270;BME280;40181;51.560;13.000;2022-07-10T00:45:05;101234.78;;;14.43;59.31
54270;BME280;40181;51.560;13.000;2022-07-10T00:47:36;101237.50;;;14.52;59.41
54270;BME280;40181;51.560;13.000;2022-07-10T00:50:05;101236.56;;;14.47;59.57
54270;BME280;40181;51.560;13.000;2022-07-10T00:52:35;101235.66;;;14.41;59.80
54270;BME280;40181;51.560;13.000;2022-07-10T00:55:05;101239.22;;;14.47;60.22
54270;BME280;40181;51.560;13.000;2022-07-10T00:57:35;101234.81;;;14.46;60.45
54270;BME280;40181;51.560;13.000;2022-07-10T01:00:06;101241.84;;;14.41;60.70
54270;BME280;40181;51.560;13.000;2022-07-10T01:02:41;101233.00;;;14.37;60.97
54270;BME280;40181;51.560;13.000;2022-07-10T01:05:10;101237.41;;;14.38;60.99
54270;BME280;40181;51.560;13.000;2022-07-10T01:07:39;101229.38;;;14.31;61.34
54270;BME280;40181;51.560;13.000;2022-07-10T01:10:07;101236.38;;;14.21;61.75
54270;BME280;40181;51.560;13.000;2022-07-10T01:12:36;101238.22;;;14.31;61.67
54270;BME280;40181;51.560;13.000;2022-07-10T01:15:07;101232.88;;;14.27;61.66
54270;BME280;40181;51.560;13.000;2022-07-10T01:17:39;101231.88;;;14.14;62.14
54270;BME280;40181;51.560;13.000;2022-07-10T01:20:08;101231.09;;;14.21;61.70
54270;BME280;40181;51.560;13.000;2022-07-10T01:22:39;101236.22;;;14.08;61.77
54270;BME280;40181;51.560;13.000;2022-07-10T01:25:09;101235.28;;;13.99;61.96
54270;BME280;40181;51.560;13.000;2022-07-10T01:27:38;101227.47;;;14.09;61.46
54270;BME280;40181;51.560;13.000;2022-07-10T01:30:07;101235.25;;;13.97;62.00
54270;BME280;40181;51.560;13.000;2022-07-10T01:32:37;101234.53;;;14.17;61.70
54270;BME280;40181;51.560;13.000;2022-07-10T01:35:07;101222.16;;;14.08;61.72
54270;BME280;40181;51.560;13.000;2022-07-10T01:37:39;101218.56;;;14.01;61.92
54270;BME280;40181;51.560;13.000;2022-07-10T01:40:08;101233.63;;;14.13;61.65
54270;BME280;40181;51.560;13.000;2022-07-10T01:42:37;101220.47;;;14.19;61.32
54270;BME280;40181;51.560;13.000;2022-07-10T01:45:06;101222.16;;;14.08;61.89
54270;BME280;40181;51.560;13.000;2022-07-10T01:47:37;101219.50;;;14.05;62.10
54270;BME280;40181;51.560;13.000;2022-07-10T01:50:06;101215.06;;;14.04;62.16
54270;BME280;40181;51.560;13.000;2022-07-10T01:52:35;101212.56;;;14.22;61.78
54270;BME280;40181;51.560;13.000;2022-07-10T01:55:07;101211.66;;;14.14;61.95
54270;BME280;40181;51.560;13.000;2022-07-10T01:57:36;101220.28;;;13.99;62.37
54270;BME280;40181;51.560;13.000;2022-07-10T02:00:05;101207.19;;;14.07;62.17
54270;BME280;40181;51.560;13.000;2022-07-10T02:02:34;101212.41;;;14.02;62.21
54270;BME280;40181;51.560;13.000;2022-07-10T02:05:03;101212.53;;;14.16;62.58
54270;BME280;40181;51.560;13.000;2022-07-10T02:07:29;101206.28;;;14.05;62.01
54270;BME280;40181;51.560;13.000;2022-07-10T02:09:57;101214.22;;;14.08;62.15
54270;BME280;40181;51.560;13.000;2022-07-10T02:12:29;101205.31;;;13.96;62.17
54270;BME280;40181;51.560;13.000;2022-07-10T02:14:57;101202.69;;;13.98;62.32
54270;BME280;40181;51.560;13.000;2022-07-10T02:17:27;101197.41;;;14.00;62.12
54270;BME280;40181;51.560;13.000;2022-07-10T02:19:55;101203.66;;;14.08;62.27
54270;BME280;40181;51.560;13.000;2022-07-10T02:22:23;101192.19;;;14.07;62.44
54270;BME280;40181;51.560;13.000;2022-07-10T02:24:52;101189.50;;;14.01;62.76
54270;BME280;40181;51.560;13.000;2022-07-10T02:27:20;101193.91;;;14.01;62.47
54270;BME280;40181;51.560;13.000;2022-07-10T02:29:51;101188.44;;;13.82;63.18
54270;BME280;40181;51.560;13.000;2022-07-10T02:32:19;101176.19;;;13.90;62.87
54270;BME280;40181;51.560;13.000;2022-07-10T02:34:48;101183.31;;;13.97;62.57
54270;BME280;40181;51.560;13.000;2022-07-10T02:37:16;101185.88;;;13.91;62.54
54270;BME280;40181;51.560;13.000;2022-07-10T02:39:44;101190.28;;;13.89;62.57
54270;BME280;40181;51.560;13.000;2022-07-10T02:42:13;101191.19;;;13.94;62.46
54270;BME280;40181;51.560;13.000;2022-07-10T02:44:41;101190.28;;;13.91;62.69
54270;BME280;40181;51.560;13.000;2022-07-10T02:47:12;101187.69;;;13.94;62.35
54270;BME280;40181;51.560;13.000;2022-07-10T02:49:41;101185.78;;;13.80;62.81
54270;BME280;40181;51.560;13.000;2022-07-10T02:52:09;101200.00;;;13.93;62.21
54270;BME280;40181;51.560;13.000;2022-07-10T02:54:38;101195.50;;;13.86;62.97
54270;BME280;40181;51.560;13.000;2022-07-10T02:57:08;101195.41;;;13.74;63.08
54270;BME280;40181;51.560;13.000;2022-07-10T02:59:36;101194.66;;;13.89;62.58
54270;BME280;40181;51.560;13.000;2022-07-10T03:02:05;101185.88;;;13.88;62.51
54270;BME280;40181;51.560;13.000;2022-07-10T03:04:36;101196.38;;;13.85;62.58
54270;BME280;40181;51.560;13.000;2022-07-10T03:07:05;101192.91;;;13.88;62.72
54270;BME280;40181;51.560;13.000;2022-07-10T03:09:33;101180.53;;;13.83;62.90
54270;BME280;40181;51.560;13.000;2022-07-10T03:12:02;101193.72;;;13.82;63.18
54270;BME280;40181;51.560;13.000;2022-07-10T03:14:31;101186.75;;;13.89;62.68
54270;BME280;40181;51.560;13.000;2022-07-10T03:16:59;101190.03;;;13.67;63.20
54270;BME280;40181;51.560;13.000;2022-07-10T03:19:27;101192.88;;;13.85;63.07
54270;BME280;40181;51.560;13.000;2022-07-10T03:21:59;101189.34;;;13.82;62.72
54270;BME280;40181;51.560;13.000;2022-07-10T03:24:27;101193.75;;;13.85;63.10
54270;BME280;40181;51.560;13.000;2022-07-10T03:26:55;101188.53;;;13.94;62.86
54270;BME280;40181;51.560;13.000;2022-07-10T03:29:24;101186.75;;;13.87;62.98
54270;BME280;40181;51.560;13.000;2022-07-10T03:31:54;101187.53;;;13.78;62.95
54270;BME280;40181;51.560;13.000;2022-07-10T03:34:22;101173.56;;;13.90;62.88
54270;BME280;40181;51.560;13.000;2022-07-10T03:36:50;101180.50;;;13.80;63.15
54270;BME280;40181;51.560;13.000;2022-07-10T03:39:22;101174.44;;;13.91;62.79
54270;BME280;40181;51.560;13.000;2022-07-10T03:41:50;101181.38;;;13.81;63.25
54270;BME280;40181;51.560;13.000;2022-07-10T03:44:19;101177.03;;;13.86;63.32
54270;BME280;40181;51.560;13.000;2022-07-10T03:46:47;101178.59;;;13.67;64.25
54270;BME280;40181;51.560;13.000;2022-07-10T03:49:15;101188.19;;;13.59;64.71
54270;BME280;40181;51.560;13.000;2022-07-10T03:51:44;101185.75;;;13.77;64.57
54270;BME280;40181;51.560;13.000;2022-07-10T03:54:12;101194.31;;;13.53;66.33
54270;BME280;40181;51.560;13.000;2022-07-10T03:56:43;101182.31;;;13.86;65.99
54270;BME280;40181;51.560;13.000;2022-07-10T03:59:23;101169.97;;;13.83;67.07
54270;BME280;40181;51.560;13.000;2022-07-10T04:01:52;101175.88;;;13.58;67.82
54270;BME280;40181;51.560;13.000;2022-07-10T04:04:21;101174.97;;;13.57;67.39
54270;BME280;40181;51.560;13.000;2022-07-10T04:06:49;101172.25;;;13.49;66.97
54270;BME280;40181;51.560;13.000;2022-07-10T04:09:18;101182.06;;;13.60;66.48
54270;BME280;40181;51.560;13.000;2022-07-10T04:11:49;101175.78;;;13.51;67.17
54270;BME280;40181;51.560;13.000;2022-07-10T04:14:17;101166.97;;;13.49;67.51
54270;BME280;40181;51.560;13.000;2022-07-10T04:16:45;101174.19;;;13.64;67.49
54270;BME280;40181;51.560;13.000;2022-07-10T04:19:14;101172.41;;;13.63;68.26
54270;BME280;40181;51.560;13.000;2022-07-10T04:21:42;101160.78;;;13.46;69.22
54270;BME280;40181;51.560;13.000;2022-07-10T04:24:10;101175.88;;;13.59;69.37
54270;BME280;40181;51.560;13.000;2022-07-10T04:26:38;101163.28;;;13.36;69.99
54270;BME280;40181;51.560;13.000;2022-07-10T04:29:09;101159.78;;;13.40;70.19
54270;BME280;40181;51.560;13.000;2022-07-10T04:31:38;101163.44;;;13.49;70.21
54270;BME280;40181;51.560;13.000;2022-07-10T04:34:06;101168.69;;;13.46;70.25
54270;BME280;40181;51.560;13.000;2022-07-10T04:36:34;101166.88;;;13.43;70.68
54270;BME280;40181;51.560;13.000;2022-07-10T04:39:04;101166.84;;;13.40;71.10
54270;BME280;40181;51.560;13.000;2022-07-10T04:41:32;101171.22;;;13.39;71.37
54270;BME280;40181;51.560;13.000;2022-07-10T04:44:00;101159.00;;;13.45;71.47
54270;BME280;40181;51.560;13.000;2022-07-10T04:46:31;101168.63;;;13.41;71.17
54270;BME280;40181;51.560;13.000;2022-07-10T04:49:00;101160.56;;;13.28;71.75
54270;BME280;40181;51.560;13.000;2022-07-10T04:51:28;101165.16;;;13.45;71.42
54270;BME280;40181;51.560;13.000;2022-07-10T04:53:56;101159.75;;;13.36;71.62
54270;BME280;40181;51.560;13.000;2022-07-10T04:56:25;101170.31;;;13.37;71.49
54270;BME280;40181;51.560;13.000;2022-07-10T04:58:53;101176.53;;;13.41;71.51
54270;BME280;40181;51.560;13.000;2022-07-10T05:01:21;101184.19;;;13.19;72.62
54270;BME280;40181;51.560;13.000;2022-07-10T05:03:52;101166.75;;;13.34;71.89
54270;BME280;40181;51.560;13.000;2022-07-10T05:06:21;101177.00;;;13.07;71.83
54270;BME280;40181;51.560;13.000;2022-07-10T05:08:49;101170.09;;;13.19;72.14
54270;BME280;40181;51.560;13.000;2022-07-10T05:11:18;101170.28;;;13.33;71.32
54270;BME280;40181;51.560;13.000;2022-07-10T05:13:47;101164.00;;;13.23;71.95
54270;BME280;40181;51.560;13.000;2022-07-10T05:16:15;101165.84;;;13.28;71.93
54270;BME280;40181;51.560;13.000;2022-07-10T05:18:44;101157.28;;;13.48;71.50
54270;BME280;40181;51.560;13.000;2022-07-10T05:21:15;101170.50;;;13.48;70.47
54270;BME280;40181;51.560;13.000;2022-07-10T05:23:44;101164.19;;;13.38;70.27
54270;BME280;40181;51.560;13.000;2022-07-10T05:26:12;101159.69;;;13.31;70.19
54270;BME280;40181;51.560;13.000;2022-07-10T05:28:41;101156.50;;;13.57;69.49
54270;BME280;40181;51.560;13.000;2022-07-10T05:31:09;101164.44;;;13.59;69.45
54270;BME280;40181;51.560;13.000;2022-07-10T05:33:37;101150.38;;;13.60;69.49
54270;BME280;40181;51.560;13.000;2022-07-10T05:36:07;101166.16;;;13.55;69.55
54270;BME280;40181;51.560;13.000;2022-07-10T05:38:39;101160.94;;;13.63;69.22
54270;BME280;40181;51.560;13.000;2022-07-10T05:41:07;101161.88;;;13.65;69.43
54270;BME280;40181;51.560;13.000;2022-07-10T05:43:35;101156.28;;;13.41;69.77
54270;BME280;40181;51.560;13.000;2022-07-10T05:46:04;101162.69;;;13.58;70.02
54270;BME280;40181;51.560;13.000;2022-07-10T05:48:32;101165.47;;;13.75;68.70
54270;BME280;40181;51.560;13.000;2022-07-10T05:51:00;101167.88;;;13.51;69.76
54270;BME280;40181;51.560;13.000;2022-07-10T05:53:29;101159.22;;;13.66;69.78
54270;BME280;40181;51.560;13.000;2022-07-10T05:56:02;101167.19;;;13.69;69.47
54270;BME280;40181;51.560;13.000;2022-07-10T05:58:30;101160.19;;;13.75;69.42
54270;BME280;40181;51.560;13.000;2022-07-10T06:00:59;101161.94;;;13.69;69.99
54270;BME280;40181;51.560;13.000;2022-07-10T06:03:27;101161.91;;;13.71;69.69
54270;BME280;40181;51.560;13.000;2022-07-10T06:05:55;101154.97;;;13.79;69.90
54270;BME280;40181;51.560;13.000;2022-07-10T06:08:24;101168.97;;;13.71;70.37
54270;BME280;40181;51.560;13.000;2022-07-10T06:10:53;101155.81;;;13.75;70.29
54270;BME280;40181;51.560;13.000;2022-07-10T06:13:24;101159.50;;;13.94;69.68
54270;BME280;40181;51.560;13.000;2022-07-10T06:15:52;101166.34;;;13.71;70.84
54270;BME280;40181;51.560;13.000;2022-07-10T06:18:20;101158.44;;;13.75;71.13
54270;BME280;40181;51.560;13.000;2022-07-10T06:20:49;101158.50;;;13.83;71.15
54270;BME280;40181;51.560;13.000;2022-07-10T06:23:17;101155.94;;;13.91;71.39
54270;BME280;40181;51.560;13.000;2022-07-10T06:25:45;101159.31;;;13.74;71.70
54270;BME280;40181;51.560;13.000;2022-07-10T06:28:14;101174.56;;;14.03;71.33
54270;BME280;40181;51.560;13.000;2022-07-10T06:30:45;101156.03;;;14.02;71.56
54270;BME280;40181;51.560;13.000;2022-07-10T06:33:14;101163.25;;;14.23;70.32
54270;BME280;40181;51.560;13.000;2022-07-10T06:35:42;101163.25;;;14.20;69.93
54270;BME280;40181;51.560;13.000;2022-07-10T06:38:10;101158.09;;;14.37;69.48
54270;BME280;40181;51.560;13.000;2022-07-10T06:40:40;101158.22;;;14.57;69.17
54270;BME280;40181;51.560;13.000;2022-07-10T06:43:09;101151.16;;;14.51;68.80
54270;BME280;40181;51.560;13.000;2022-07-10T06:45:38;101166.16;;;14.57;68.21
54270;BME280;40181;51.560;13.000;2022-07-10T06:48:10;101159.94;;;14.46;67.17
54270;BME280;40181;51.560;13.000;2022-07-10T06:50:38;101161.69;;;14.48;67.76
54270;BME280;40181;51.560;13.000;2022-07-10T06:53:07;101155.59;;;14.60;67.04
54270;BME280;40181;51.560;13.000;2022-07-10T06:55:36;101160.91;;;14.62;66.82
54270;BME280;40181;51.560;13.000;2022-07-10T06:58:05;101155.50;;;14.49;66.49
54270;BME280;40181;51.560;13.000;2022-07-10T07:00:33;101155.66;;;14.71;66.00
54270;BME280;40181;51.560;13.000;2022-07-10T07:03:02;101152.13;;;14.69;64.97
54270;BME280;40181;51.560;13.000;2022-07-10T07:05:33;101162.84;;;14.91;64.89
54270;BME280;40181;51.560;13.000;2022-07-10T07:08:04;101153.19;;;14.96;63.15
54270;BME280;40181;51.560;13.000;2022-07-10T07:10:32;101155.94;;;15.26;62.27
54270;BME280;40181;51.560;13.000;2022-07-10T07:13:00;101161.22;;;15.23;61.12
54270;BME280;40181;51.560;13.000;2022-07-10T07:15:28;101158.63;;;15.33;61.50
54270;BME280;40181;51.560;13.000;2022-07-10T07:18:01;101152.47;;;15.36;61.52
54270;BME280;40181;51.560;13.000;2022-07-10T07:20:44;101173.59;;;15.22;60.44
54270;BME280;40181;51.560;13.000;2022-07-10T07:23:27;101159.53;;;15.37;60.53
54270;BME280;40181;51.560;13.000;2022-07-10T07:25:55;101160.41;;;15.38;60.84
54270;BME280;40181;51.560;13.000;2022-07-10T07:28:24;101148.97;;;15.49;59.97
54270;BME280;40181;51.560;13.000;2022-07-10T07:30:52;101156.03;;;15.47;60.16
54270;BME280;40181;51.560;13.000;2022-07-10T07:33:20;101157.78;;;15.41;60.19
54270;BME280;40181;51.560;13.000;2022-07-10T07:35:51;101141.06;;;15.79;58.87
54270;BME280;40181;51.560;13.000;2022-07-10T07:38:20;101141.06;;;15.73;58.91
54270;BME280;40181;51.560;13.000;2022-07-10T07:40:48;101138.47;;;15.92;57.38
54270;BME280;40181;51.560;13.000;2022-07-10T07:43:16;101139.34;;;15.97;56.94
54270;BME280;40181;51.560;13.000;2022-07-10T07:45:45;101151.66;;;15.82;56.32
54270;BME280;40181;51.560;13.000;2022-07-10T07:48:13;101143.78;;;16.09;54.82
54270;BME280;40181;51.560;13.000;2022-07-10T07:50:41;101143.75;;;15.92;56.46
54270;BME280;40181;51.560;13.000;2022-07-10T07:53:12;101161.44;;;15.96;57.35
54270;BME280;40181;51.560;13.000;2022-07-10T07:55:40;101157.00;;;15.85;56.36
54270;BME280;40181;51.560;13.000;2022-07-10T07:58:09;101173.78;;;16.04;56.85
54270;BME280;40181;51.560;13.000;2022-07-10T08:00:37;101164.06;;;15.93;57.32
54270;BME280;40181;51.560;13.000;2022-07-10T08:03:05;101181.63;;;15.53;58.08
54270;BME280;40181;51.560;13.000;2022-07-10T08:05:33;101176.44;;;15.95;58.07
54270;BME280;40181;51.560;13.000;2022-07-10T08:08:02;101172.81;;;15.51;59.63
54270;BME280;40181;51.560;13.000;2022-07-10T08:10:36;101180.78;;;15.65;60.00
54270;BME280;40181;51.560;13.000;2022-07-10T08:13:05;101172.81;;;15.57;60.56
54270;BME280;40181;51.560;13.000;2022-07-10T08:15:33;101173.75;;;15.81;59.70
54270;BME280;40181;51.560;13.000;2022-07-10T08:18:02;101180.81;;;15.76;59.48
54270;BME280;40181;51.560;13.000;2022-07-10T08:20:34;101173.75;;;15.73;59.58
54270;BME280;40181;51.560;13.000;2022-07-10T08:23:02;101188.72;;;15.59;60.15
54270;BME280;40181;51.560;13.000;2022-07-10T08:25:31;101184.31;;;15.66;60.12
54270;BME280;40181;51.560;13.000;2022-07-10T08:28:04;101175.50;;;15.71;59.11
54270;BME280;40181;51.560;13.000;2022-07-10T08:30:35;101179.94;;;15.80;59.51
54270;BME280;40181;51.560;13.000;2022-07-10T08:33:03;101164.03;;;15.83;58.66
54270;BME280;40181;51.560;13.000;2022-07-10T08:35:32;101164.97;;;16.09;58.81
54270;BME280;40181;51.560;13.000;2022-07-10T08:38:00;101180.00;;;16.19;58.07
54270;BME280;40181;51.560;13.000;2022-07-10T08:40:34;101155.25;;;15.92;57.31
54270;BME280;40181;51.560;13.000;2022-07-10T08:43:06;101159.63;;;15.88;58.20
54270;BME280;40181;51.560;13.000;2022-07-10T08:45:34;101167.63;;;15.99;58.65
54270;BME280;40181;51.560;13.000;2022-07-10T08:48:04;101172.81;;;15.62;58.10
54270;BME280;40181;51.560;13.000;2022-07-10T08:50:42;101164.03;;;15.89;58.28
54270;BME280;40181;51.560;13.000;2022-07-10T08:53:13;101164.94;;;15.90;57.64
54270;BME280;40181;51.560;13.000;2022-07-10T08:55:45;101170.25;;;15.93;57.31
54270;BME280;40181;51.560;13.000;2022-07-10T08:58:18;101166.66;;;15.74;57.94
54270;BME280;40181;51.560;13.000;2022-07-10T09:00:47;101159.63;;;15.90;58.36
54270;BME280;40181;51.560;13.000;2022-07-10T09:03:16;101164.09;;;16.13;57.50
54270;BME280;40181;51.560;13.000;2022-07-10T09:05:44;101166.69;;;15.85;56.82
54270;BME280;40181;51.560;13.000;2022-07-10T09:08:22;101153.47;;;16.16;56.45
54270;BME280;40181;51.560;13.000;2022-07-10T09:10:53;101154.34;;;16.15;56.49
54270;BME280;40181;51.560;13.000;2022-07-10T09:13:51;101156.97;;;15.67;57.05
54270;BME280;40181;51.560;13.000;2022-07-10T09:16:22;101171.16;;;15.92;56.73
54270;BME280;40181;51.560;13.000;2022-07-10T09:18:50;101166.72;;;15.93;56.80
54270;BME280;40181;51.560;13.000;2022-07-10T09:21:19;101168.47;;;15.87;57.00
54270;BME280;40181;51.560;13.000;2022-07-10T09:23:47;101168.50;;;16.06;56.69
54270;BME280;40181;51.560;13.000;2022-07-10T09:26:16;101172.91;;;15.92;56.56
54270;BME280;40181;51.560;13.000;2022-07-10T09:29:07;101167.63;;;16.09;57.04
54270;BME280;40181;51.560;13.000;2022-07-10T09:31:49;101166.72;;;16.07;56.91
54270;BME280;40181;51.560;13.000;2022-07-10T09:34:19;101172.03;;;16.05;57.04
54270;BME280;40181;51.560;13.000;2022-07-10T09:37:21;101171.16;;;16.14;56.62
54270;BME280;40181;51.560;13.000;2022-07-10T09:39:54;101171.13;;;15.95;56.96
54270;BME280;40181;51.560;13.000;2022-07-10T09:42:30;101172.03;;;16.13;56.86
54270;BME280;40181;51.560;13.000;2022-07-10T09:48:00;101161.41;;;16.36;55.49
54270;BME280;40181;51.560;13.000;2022-07-10T09:50:31;101157.91;;;16.09;55.27
54270;BME280;40181;51.560;13.000;2022-07-10T09:53:00;101169.38;;;16.17;55.64
54270;BME280;40181;51.560;13.000;2022-07-10T09:55:31;101163.19;;;16.40;54.13
54270;BME280;40181;51.560;13.000;2022-07-10T09:58:00;101154.34;;;16.44;54.83
54270;BME280;40181;51.560;13.000;2022-07-10T10:00:31;101164.06;;;16.63;54.43
54270;BME280;40181;51.560;13.000;2022-07-10T10:03:03;101163.16;;;16.57;55.00
54270;BME280;40181;51.560;13.000;2022-07-10T10:05:35;101152.53;;;16.68;54.53
54270;BME280;40181;51.560;13.000;2022-07-10T10:08:09;101148.97;;;16.77;54.97
54270;BME280;40181;51.560;13.000;2022-07-10T10:10:43;101148.94;;;16.94;54.22
54270;BME280;40181;51.560;13.000;2022-07-10T10:13:15;101142.75;;;16.89;54.51
54270;BME280;40181;51.560;13.000;2022-07-10T10:15:45;101145.44;;;16.73;54.76
54270;BME280;40181;51.560;13.000;2022-07-10T10:18:19;101155.19;;;16.64;54.85
54270;BME280;40181;51.560;13.000;2022-07-10T10:20:50;101161.41;;;16.52;55.25
54270;BME280;40181;51.560;13.000;2022-07-10T10:23:17;101157.81;;;16.71;55.21
54270;BME280;40181;51.560;13.000;2022-07-10T10:25:46;101156.13;;;16.35;55.24
54270;BME280;40181;51.560;13.000;2022-07-10T10:28:16;101149.91;;;16.56;55.56
54270;BME280;40181;51.560;13.000;2022-07-10T10:30:49;101151.66;;;16.60;55.56
54270;BME280;40181;51.560;13.000;2022-07-10T10:33:45;101171.06;;;16.81;54.37
54270;BME280;40181;51.560;13.000;2022-07-10T10:36:44;101171.13;;;16.51;55.39
54270;BME280;40181;51.560;13.000;2022-07-10T10:39:17;101158.75;;;16.36;54.84
54270;BME280;40181;51.560;13.000;2022-07-10T10:41:49;101164.97;;;16.35;54.55
54270;BME280;40181;51.560;13.000;2022-07-10T10:44:27;101160.53;;;16.28;55.22
54270;BME280;40181;51.560;13.000;2022-07-10T10:47:04;101180.88;;;16.02;56.77
54270;BME280;40181;51.560;13.000;2022-07-10T10:50:02;101183.44;;;15.74;58.13
54270;BME280;40181;51.560;13.000;2022-07-10T10:52:31;101182.56;;;15.83;59.26
54270;BME280;40181;51.560;13.000;2022-07-10T10:55:02;101182.56;;;15.79;58.19
54270;BME280;40181;51.560;13.000;2022-07-10T10:57:43;101176.44;;;15.90;56.49
54270;BME280;40181;51.560;13.000;2022-07-10T11:00:34;101176.44;;;16.18;55.38
54270;BME280;40181;51.560;13.000;2022-07-10T11:03:21;101166.69;;;16.55;54.33
54270;BME280;40181;51.560;13.000;2022-07-10T11:05:52;101161.28;;;17.16;51.81
54270;BME280;40181;51.560;13.000;2022-07-10T11:08:39;101152.44;;;17.07;50.20
54270;BME280;40181;51.560;13.000;2022-07-10T11:11:38;101155.00;;;17.31;50.29
54270;BME280;40181;51.560;13.000;2022-07-10T11:14:08;101157.75;;;17.04;48.48
54270;BME280;40181;51.560;13.000;2022-07-10T11:16:45;101157.66;;;17.27;48.44
54270;BME280;40181;51.560;13.000;2022-07-10T11:19:22;101148.75;;;17.35;48.93
54270;BME280;40181;51.560;13.000;2022-07-10T11:22:06;101156.72;;;17.39;48.98
54270;BME280;40181;51.560;13.000;2022-07-10T11:24:48;101157.56;;;17.46;48.11
54270;BME280;40181;51.560;13.000;2022-07-10T11:27:28;101148.53;;;17.75;48.42
54270;BME280;40181;51.560;13.000;2022-07-10T11:29:58;101147.53;;;17.89;47.69
54270;BME280;40181;51.560;13.000;2022-07-10T11:32:27;101143.16;;;17.83;48.07
54270;BME280;40181;51.560;13.000;2022-07-10T11:34:57;101136.88;;;17.93;48.76
54270;BME280;40181;51.560;13.000;2022-07-10T11:37:28;101134.13;;;18.07;47.90
54270;BME280;40181;51.560;13.000;2022-07-10T11:40:15;101139.31;;;18.23;47.75
54270;BME280;40181;51.560;13.000;2022-07-10T11:42:48;101133.28;;;18.05;48.04
54270;BME280;40181;51.560;13.000;2022-07-10T11:45:28;101137.63;;;18.13;48.01
54270;BME280;40181;51.560;13.000;2022-07-10T11:47:57;101143.84;;;18.11;47.38
54270;BME280;40181;51.560;13.000;2022-07-10T11:50:26;101132.19;;;18.27;47.16
54270;BME280;40181;51.560;13.000;2022-07-10T11:52:57;101131.50;;;18.00;47.93
54270;BME280;40181;51.560;13.000;2022-07-10T11:55:26;101144.75;;;18.09;47.97
54270;BME280;40181;51.560;13.000;2022-07-10T11:57:57;101140.38;;;17.98;48.13
54270;BME280;40181;51.560;13.000;2022-07-10T12:00:27;101136.75;;;18.15;47.14
54270;BME280;40181;51.560;13.000;2022-07-10T12:02:57;101136.88;;;17.96;47.08
54270;BME280;40181;51.560;13.000;2022-07-10T12:05:44;101133.13;;;18.21;46.13
54270;BME280;40181;51.560;13.000;2022-07-10T12:08:15;101126.69;;;18.44;46.47
54270;BME280;40181;51.560;13.000;2022-07-10T12:10:44;101136.19;;;17.69;46.94
54270;BME280;40181;51.560;13.000;2022-07-10T12:13:13;101122.78;;;17.83;47.17
54270;BME280;40181;51.560;13.000;2022-07-10T12:15:43;101125.16;;;18.21;47.44
54270;BME280;40181;51.560;13.000;2022-07-10T12:18:16;101135.66;;;18.33;46.54
54270;BME280;40181;51.560;13.000;2022-07-10T12:20:46;101118.25;;;17.93;46.97
54270;BME280;40181;51.560;13.000;2022-07-10T12:23:18;101116.28;;;18.22;47.51
54270;BME280;40181;51.560;13.000;2022-07-10T12:25:48;101128.78;;;18.12;46.30
54270;BME280;40181;51.560;13.000;2022-07-10T12:28:17;101122.22;;;18.50;46.35
54270;BME280;40181;51.560;13.000;2022-07-10T12:30:47;101116.84;;;18.53;45.66
54270;BME280;40181;51.560;13.000;2022-07-10T12:33:19;101111.38;;;18.66;45.90
54270;BME280;40181;51.560;13.000;2022-07-10T12:35:49;101137.25;;;18.55;46.39
54270;BME280;40181;51.560;13.000;2022-07-10T12:38:21;101132.81;;;18.52;45.44
54270;BME280;40181;51.560;13.000;2022-07-10T12:40:50;101124.31;;;19.02;45.91
54270;BME280;40181;51.560;13.000;2022-07-10T12:43:25;101134.00;;;19.06;43.94
54270;BME280;40181;51.560;13.000;2022-07-10T12:46:10;101110.56;;;19.34;44.14
54270;BME280;40181;51.560;13.000;2022-07-10T12:48:40;101110.53;;;19.36;43.57
54270;BME280;40181;51.560;13.000;2022-07-10T12:51:22;101110.16;;;19.62;42.96
54270;BME280;40181;51.560;13.000;2022-07-10T12:53:54;101110.19;;;19.59;43.11
54270;BME280;40181;51.560;13.000;2022-07-10T12:56:27;101111.34;;;19.40;43.53
54270;BME280;40181;51.560;13.000;2022-07-10T12:58:56;101109.72;;;19.32;42.92
54270;BME280;40181;51.560;13.000;2022-07-10T13:01:26;101108.75;;;19.37;42.10